sensor_id;sensor_type;location;lat;lon;timestamp;P1;durP1;ratioP1;P2;durP2;ratioP2
21890;SDS011;11110;52.386;16.940;2023-06-26T00:00:12;10.73;;;7.05;;
21890;SDS011;11110;52.386;16.940;2023-06-26T00:03:02;9.68;;;7.43;;
21890;SDS011;11110;52.386;16.940;2023-06-26T00:05:31;9.32;;;7.18;;
21890;SDS011;11110;52.386;16.940;2023-06-26T00:08:01;10.57;;;7.35;;
21890;SDS011;11110;52.386;16.940;2023-06-26T00:10:30;11.13;;;7.78;;
21890;SDS011;11110;52.386;16.940;2023-06-26T00:12:59;10.63;;;8.00;;
21890;SDS011;11110;52.386;16.940;2023-06-26T00:15:28;11.40;;;8.07;;
21890;SDS011;11110;52.386;16.940;2023-06-26T00:17:58;11.80;;;8.27;;
21890;SDS011;11110;52.386;16.940;2023-06-26T00:20:28;15.30;;;9.77;;
21890;SDS011;11110;52.386;16.940;2023-06-26T00:23:00;13.88;;;9.93;;
21890;SDS011;11110;52.386;16.940;2023-06-26T00:25:30;14.23;;;10.05;;
21890;SDS011;11110;52.386;16.940;2023-06-26T00:27:59;13.40;;;10.60;;
21890;SDS011;11110;52.386;16.940;2023-06-26T00:30:28;12.07;;;9.60;;
21890;SDS011;11110;52.386;16.940;2023-06-26T00:32:57;13.02;;;8.43;;
21890;SDS011;11110;52.386;16.940;2023-06-26T00:35:25;9.18;;;7.78;;
21890;SDS011;11110;52.386;16.940;2023-06-26T00:37:55;11.50;;;8.35;;
21890;SDS011;11110;52.386;16.940;2023-06-26T00:40:23;9.77;;;8.43;;
21890;SDS011;11110;52.386;16.940;2023-06-26T00:42:53;9.18;;;7.72;;
21890;SDS011;11110;52.386;16.940;2023-06-26T00:45:22;9.20;;;7.28;;
21890;SDS011;11110;52.386;16.940;2023-06-26T00:48:08;10.90;;;7.70;;
21890;SDS011;11110;52.386;16.940;2023-06-26T00:50:38;10.07;;;7.25;;
21890;SDS011;11110;52.386;16.940;2023-06-26T00:53:10;9.90;;;7.85;;
21890;SDS011;11110;52.386;16.940;2023-06-26T00:55:39;13.25;;;7.95;;
21890;SDS011;11110;52.386;16.940;2023-06-26T00:58:09;11.20;;;7.32;;
21890;SDS011;11110;52.386;16.940;2023-06-26T01:00:38;10.60;;;7.78;;
21890;SDS011;11110;52.386;16.940;2023-06-26T01:03:07;11.32;;;7.78;;
21890;SDS011;11110;52.386;16.940;2023-06-26T01:05:36;9.48;;;6.82;;
21890;SDS011;11110;52.386;16.940;2023-06-26T01:08:05;10.73;;;7.55;;
21890;SDS011;11110;52.386;16.940;2023-06-26T01:10:35;10.95;;;7.38;;
21890;SDS011;11110;52.386;16.940;2023-06-26T01:13:04;9.60;;;7.53;;
21890;SDS011;11110;52.386;16.940;2023-06-26T01:15:33;11.90;;;8.52;;
21890;SDS011;11110;52.386;16.940;2023-06-26T01:18:02;16.33;;;12.30;;
21890;SDS011;11110;52.386;16.940;2023-06-26T01:20:34;20.10;;;13.82;;
21890;SDS011;11110;52.386;16.940;2023-06-26T01:23:05;23.90;;;15.38;;
21890;SDS011;11110;52.386;16.940;2023-06-26T01:28:47;17.08;;;11.23;;
21890;SDS011;11110;52.386;16.940;2023-06-26T01:31:17;15.38;;;10.90;;
21890;SDS011;11110;52.386;16.940;2023-06-26T01:33:47;14.10;;;10.57;;
21890;SDS011;11110;52.386;16.940;2023-06-26T01:36:20;17.08;;;11.45;;
21890;SDS011;11110;52.386;16.940;2023-06-26T01:38:49;14.73;;;10.65;;
21890;SDS011;11110;52.386;16.940;2023-06-26T01:41:18;12.93;;;10.07;;
21890;SDS011;11110;52.386;16.940;2023-06-26T01:43:54;11.65;;;9.23;;
21890;SDS011;11110;52.386;16.940;2023-06-26T01:46:43;10.85;;;8.07;;
21890;SDS011;11110;52.386;16.940;2023-06-26T01:49:19;10.43;;;7.72;;
21890;SDS011;11110;52.386;16.940;2023-06-26T01:51:55;10.75;;;7.30;;
21890;SDS011;11110;52.386;16.940;2023-06-26T01:54:32;15.43;;;10.60;;
21890;SDS011;11110;52.386;16.940;2023-06-26T01:57:06;13.63;;;10.00;;
21890;SDS011;11110;52.386;16.940;2023-06-26T01:59:36;21.90;;;15.60;;
21890;SDS011;11110;52.386;16.940;2023-06-26T02:02:06;16.30;;;11.35;;
21890;SDS011;11110;52.386;16.940;2023-06-26T02:04:37;15.10;;;9.75;;
21890;SDS011;11110;52.386;16.940;2023-06-26T02:07:05;12.52;;;9.50;;
21890;SDS011;11110;52.386;16.940;2023-06-26T02:09:36;19.27;;;11.27;;
21890;SDS011;11110;52.386;16.940;2023-06-26T02:12:06;19.83;;;13.60;;
21890;SDS011;11110;52.386;16.940;2023-06-26T02:14:35;17.75;;;12.13;;
21890;SDS011;11110;52.386;16.940;2023-06-26T02:17:04;14.13;;;11.05;;
21890;SDS011;11110;52.386;16.940;2023-06-26T02:19:33;12.70;;;10.18;;
21890;SDS011;11110;52.386;16.940;2023-06-26T02:22:02;13.40;;;8.57;;
21890;SDS011;11110;52.386;16.940;2023-06-26T02:24:31;12.63;;;8.82;;
21890;SDS011;11110;52.386;16.940;2023-06-26T02:27:00;10.27;;;7.65;;
21890;SDS011;11110;52.386;16.940;2023-06-26T02:29:31;10.00;;;7.20;;
21890;SDS011;11110;52.386;16.940;2023-06-26T02:31:59;12.52;;;7.60;;
21890;SDS011;11110;52.386;16.940;2023-06-26T02:34:28;12.25;;;7.18;;
21890;SDS011;11110;52.386;16.940;2023-06-26T02:36:57;13.02;;;8.05;;
21890;SDS011;11110;52.386;16.940;2023-06-26T02:39:27;11.40;;;7.50;;
21890;SDS011;11110;52.386;16.940;2023-06-26T02:41:56;10.55;;;7.03;;
21890;SDS011;11110;52.386;16.940;2023-06-26T02:44:25;11.27;;;7.50;;
21890;SDS011;11110;52.386;16.940;2023-06-26T02:46:55;10.60;;;7.07;;
21890;SDS011;11110;52.386;16.940;2023-06-26T02:49:24;15.38;;;9.63;;
21890;SDS011;11110;52.386;16.940;2023-06-26T02:51:52;13.65;;;9.90;;
21890;SDS011;11110;52.386;16.940;2023-06-26T02:54:27;16.67;;;10.38;;
21890;SDS011;11110;52.386;16.940;2023-06-26T02:57:02;18.42;;;11.80;;
21890;SDS011;11110;52.386;16.940;2023-06-26T02:59:32;19.13;;;11.30;;
21890;SDS011;11110;52.386;16.940;2023-06-26T03:02:02;19.40;;;13.20;;
21890;SDS011;11110;52.386;16.940;2023-06-26T03:04:41;16.58;;;11.82;;
21890;SDS011;11110;52.386;16.940;2023-06-26T03:07:12;16.88;;;10.85;;
21890;SDS011;11110;52.386;16.940;2023-06-26T03:09:41;14.07;;;9.57;;
21890;SDS011;11110;52.386;16.940;2023-06-26T03:12:10;10.75;;;8.18;;
21890;SDS011;11110;52.386;16.940;2023-06-26T03:14:38;13.68;;;9.85;;
21890;SDS011;11110;52.386;16.940;2023-06-26T03:17:08;20.58;;;15.13;;
21890;SDS011;11110;52.386;16.940;2023-06-26T03:19:39;15.73;;;11.55;;
21890;SDS011;11110;52.386;16.940;2023-06-26T03:22:22;16.92;;;12.02;;
21890;SDS011;11110;52.386;16.940;2023-06-26T03:24:51;15.13;;;10.85;;
21890;SDS011;11110;52.386;16.940;2023-06-26T03:27:19;15.38;;;10.80;;
21890;SDS011;11110;52.386;16.940;2023-06-26T03:29:49;14.02;;;10.07;;
21890;SDS011;11110;52.386;16.940;2023-06-26T03:32:22;16.95;;;9.90;;
21890;SDS011;11110;52.386;16.940;2023-06-26T03:34:50;14.30;;;9.25;;
21890;SDS011;11110;52.386;16.940;2023-06-26T03:37:20;12.93;;;8.32;;
21890;SDS011;11110;52.386;16.940;2023-06-26T03:39:50;13.10;;;7.80;;
21890;SDS011;11110;52.386;16.940;2023-06-26T03:42:18;14.60;;;9.07;;
21890;SDS011;11110;52.386;16.940;2023-06-26T03:44:47;15.88;;;8.38;;
21890;SDS011;11110;52.386;16.940;2023-06-26T03:47:17;13.85;;;7.82;;
21890;SDS011;11110;52.386;16.940;2023-06-26T03:49:47;17.45;;;7.97;;
21890;SDS011;11110;52.386;16.940;2023-06-26T03:52:16;12.70;;;8.38;;
21890;SDS011;11110;52.386;16.940;2023-06-26T03:54:45;17.77;;;11.48;;
21890;SDS011;11110;52.386;16.940;2023-06-26T03:57:15;16.77;;;10.85;;
21890;SDS011;11110;52.386;16.940;2023-06-26T03:59:46;15.95;;;11.30;;
21890;SDS011;11110;52.386;16.940;2023-06-26T04:02:15;16.83;;;11.95;;
21890;SDS011;11110;52.386;16.940;2023-06-26T04:04:43;21.42;;;11.23;;
21890;SDS011;11110;52.386;16.940;2023-06-26T04:07:14;18.55;;;10.32;;
21890;SDS011;11110;52.386;16.940;2023-06-26T04:09:43;22.73;;;16.10;;
21890;SDS011;11110;52.386;16.940;2023-06-26T04:12:11;15.13;;;9.90;;
21890;SDS011;11110;52.386;16.940;2023-06-26T04:14:40;15.20;;;9.43;;
21890;SDS011;11110;52.386;16.940;2023-06-26T04:17:10;16.83;;;10.23;;
21890;SDS011;11110;52.386;16.940;2023-06-26T04:19:39;16.85;;;10.32;;
21890;SDS011;11110;52.386;16.940;2023-06-26T04:22:07;13.98;;;9.48;;
21890;SDS011;11110;52.386;16.940;2023-06-26T04:24:37;12.93;;;9.02;;
21890;SDS011;11110;52.386;16.940;2023-06-26T04:27:06;10.55;;;8.25;;
21890;SDS011;11110;52.386;16.940;2023-06-26T04:29:35;12.90;;;8.95;;
21890;SDS011;11110;52.386;16.940;2023-06-26T04:32:03;12.77;;;9.68;;
21890;SDS011;11110;52.386;16.940;2023-06-26T04:34:33;12.30;;;9.00;;
21890;SDS011;11110;52.386;16.940;2023-06-26T04:37:02;11.63;;;8.45;;
21890;SDS011;11110;52.386;16.940;2023-06-26T04:39:32;12.10;;;8.70;;
21890;SDS011;11110;52.386;16.940;2023-06-26T04:42:01;10.43;;;7.85;;
21890;SDS011;11110;52.386;16.940;2023-06-26T04:44:30;11.23;;;8.38;;
21890;SDS011;11110;52.386;16.940;2023-06-26T04:46:59;14.20;;;9.55;;
21890;SDS011;11110;52.386;16.940;2023-06-26T04:49:28;13.23;;;8.73;;
21890;SDS011;11110;52.386;16.940;2023-06-26T04:51:56;12.70;;;8.65;;
21890;SDS011;11110;52.386;16.940;2023-06-26T04:54:27;10.98;;;7.78;;
21890;SDS011;11110;52.386;16.940;2023-06-26T04:56:55;11.38;;;7.97;;
21890;SDS011;11110;52.386;16.940;2023-06-26T04:59:25;22.85;;;15.27;;
21890;SDS011;11110;52.386;16.940;2023-06-26T05:01:53;17.70;;;11.90;;
21890;SDS011;11110;52.386;16.940;2023-06-26T05:04:22;14.93;;;10.60;;
21890;SDS011;11110;52.386;16.940;2023-06-26T05:06:51;18.70;;;10.98;;
21890;SDS011;11110;52.386;16.940;2023-06-26T05:09:20;14.48;;;9.20;;
21890;SDS011;11110;52.386;16.940;2023-06-26T05:11:48;13.07;;;8.95;;
21890;SDS011;11110;52.386;16.940;2023-06-26T05:14:17;13.75;;;9.10;;
21890;SDS011;11110;52.386;16.940;2023-06-26T05:16:46;13.25;;;8.50;;
21890;SDS011;11110;52.386;16.940;2023-06-26T05:19:15;11.98;;;8.35;;
21890;SDS011;11110;52.386;16.940;2023-06-26T05:21:43;12.75;;;9.02;;
21890;SDS011;11110;52.386;16.940;2023-06-26T05:24:13;12.70;;;9.02;;
21890;SDS011;11110;52.386;16.940;2023-06-26T05:26:43;14.27;;;8.75;;
21890;SDS011;11110;52.386;16.940;2023-06-26T05:29:12;19.90;;;12.65;;
21890;SDS011;11110;52.386;16.940;2023-06-26T05:31:41;14.90;;;10.57;;
21890;SDS011;11110;52.386;16.940;2023-06-26T05:34:14;13.85;;;9.05;;
21890;SDS011;11110;52.386;16.940;2023-06-26T05:36:44;13.90;;;10.07;;
21890;SDS011;11110;52.386;16.940;2023-06-26T05:39:16;11.57;;;8.55;;
21890;SDS011;11110;52.386;16.940;2023-06-26T05:41:45;9.68;;;8.02;;
21890;SDS011;11110;52.386;16.940;2023-06-26T05:44:14;17.45;;;8.50;;
21890;SDS011;11110;52.386;16.940;2023-06-26T05:46:43;11.20;;;6.97;;
21890;SDS011;11110;52.386;16.940;2023-06-26T05:49:12;14.20;;;8.15;;
21890;SDS011;11110;52.386;16.940;2023-06-26T05:51:42;8.85;;;7.75;;
21890;SDS011;11110;52.386;16.940;2023-06-26T05:54:11;9.85;;;6.78;;
21890;SDS011;11110;52.386;16.940;2023-06-26T05:56:40;9.23;;;6.97;;
21890;SDS011;11110;52.386;16.940;2023-06-26T05:59:10;12.85;;;7.35;;
21890;SDS011;11110;52.386;16.940;2023-06-26T06:01:39;10.95;;;6.85;;
21890;SDS011;11110;52.386;16.940;2023-06-26T06:04:08;11.18;;;7.75;;
21890;SDS011;11110;52.386;16.940;2023-06-26T06:06:38;14.02;;;8.02;;
21890;SDS011;11110;52.386;16.940;2023-06-26T06:09:07;10.38;;;7.15;;
21890;SDS011;11110;52.386;16.940;2023-06-26T06:11:35;9.10;;;6.93;;
21890;SDS011;11110;52.386;16.940;2023-06-26T06:14:04;11.05;;;7.75;;
21890;SDS011;11110;52.386;16.940;2023-06-26T06:16:32;9.38;;;6.95;;
21890;SDS011;11110;52.386;16.940;2023-06-26T06:19:01;10.02;;;7.18;;
21890;SDS011;11110;52.386;16.940;2023-06-26T06:21:30;9.10;;;7.38;;
21890;SDS011;11110;52.386;16.940;2023-06-26T06:24:00;10.60;;;7.50;;
21890;SDS011;11110;52.386;16.940;2023-06-26T06:26:28;9.95;;;7.35;;
21890;SDS011;11110;52.386;16.940;2023-06-26T06:28:57;13.00;;;7.15;;
21890;SDS011;11110;52.386;16.940;2023-06-26T06:31:25;11.45;;;6.45;;
21890;SDS011;11110;52.386;16.940;2023-06-26T06:33:55;10.57;;;7.00;;
21890;SDS011;11110;52.386;16.940;2023-06-26T06:36:23;8.23;;;6.47;;
21890;SDS011;11110;52.386;16.940;2023-06-26T06:38:52;9.70;;;6.45;;
21890;SDS011;11110;52.386;16.940;2023-06-26T06:41:22;8.15;;;6.45;;
21890;SDS011;11110;52.386;16.940;2023-06-26T06:43:50;9.48;;;6.50;;
21890;SDS011;11110;52.386;16.940;2023-06-26T06:46:19;12.40;;;6.95;;
21890;SDS011;11110;52.386;16.940;2023-06-26T06:48:48;8.10;;;6.18;;
21890;SDS011;11110;52.386;16.940;2023-06-26T06:51:17;10.50;;;6.97;;
21890;SDS011;11110;52.386;16.940;2023-06-26T06:53:45;10.55;;;6.25;;
21890;SDS011;11110;52.386;16.940;2023-06-26T06:56:14;10.13;;;5.65;;
21890;SDS011;11110;52.386;16.940;2023-06-26T06:58:44;14.02;;;7.00;;
21890;SDS011;11110;52.386;16.940;2023-06-26T07:01:13;11.70;;;7.20;;
21890;SDS011;11110;52.386;16.940;2023-06-26T07:03:42;10.63;;;6.93;;
21890;SDS011;11110;52.386;16.940;2023-06-26T07:06:11;9.00;;;6.20;;
21890;SDS011;11110;52.386;16.940;2023-06-26T07:08:39;9.57;;;5.90;;
21890;SDS011;11110;52.386;16.940;2023-06-26T07:11:08;10.90;;;7.53;;
21890;SDS011;11110;52.386;16.940;2023-06-26T07:13:36;12.45;;;7.18;;
21890;SDS011;11110;52.386;16.940;2023-06-26T07:16:06;10.55;;;7.43;;
21890;SDS011;11110;52.386;16.940;2023-06-26T07:18:38;8.15;;;6.32;;
21890;SDS011;11110;52.386;16.940;2023-06-26T07:21:07;10.25;;;6.82;;
21890;SDS011;11110;52.386;16.940;2023-06-26T07:23:35;10.30;;;6.22;;
21890;SDS011;11110;52.386;16.940;2023-06-26T07:26:04;7.63;;;5.57;;
21890;SDS011;11110;52.386;16.940;2023-06-26T07:28:33;7.80;;;5.15;;
21890;SDS011;11110;52.386;16.940;2023-06-26T07:31:01;5.80;;;4.82;;
21890;SDS011;11110;52.386;16.940;2023-06-26T07:33:31;10.57;;;5.70;;
21890;SDS011;11110;52.386;16.940;2023-06-26T07:36:00;6.10;;;4.57;;
21890;SDS011;11110;52.386;16.940;2023-06-26T07:38:28;7.68;;;5.50;;
21890;SDS011;11110;52.386;16.940;2023-06-26T07:40:57;5.97;;;4.57;;
21890;SDS011;11110;52.386;16.940;2023-06-26T07:43:25;6.07;;;5.35;;
21890;SDS011;11110;52.386;16.940;2023-06-26T07:45:54;7.80;;;5.47;;
21890;SDS011;11110;52.386;16.940;2023-06-26T07:48:25;8.48;;;4.80;;
21890;SDS011;11110;52.386;16.940;2023-06-26T07:50:55;10.63;;;6.78;;
21890;SDS011;11110;52.386;16.940;2023-06-26T07:53:23;8.70;;;6.15;;
21890;SDS011;11110;52.386;16.940;2023-06-26T07:55:52;7.53;;;5.15;;
21890;SDS011;11110;52.386;16.940;2023-06-26T07:58:21;7.75;;;5.40;;
21890;SDS011;11110;52.386;16.940;2023-06-26T08:00:49;7.03;;;5.38;;
21890;SDS011;11110;52.386;16.940;2023-06-26T08:03:18;7.97;;;5.50;;
21890;SDS011;11110;52.386;16.940;2023-06-26T08:06:01;7.57;;;4.97;;
21890;SDS011;11110;52.386;16.940;2023-06-26T08:08:30;7.55;;;5.05;;
21890;SDS011;11110;52.386;16.940;2023-06-26T08:10:59;6.78;;;4.88;;
21890;SDS011;11110;52.386;16.940;2023-06-26T08:13:28;6.50;;;5.00;;
21890;SDS011;11110;52.386;16.940;2023-06-26T08:15:56;6.95;;;5.15;;
21890;SDS011;11110;52.386;16.940;2023-06-26T08:18:24;7.05;;;5.00;;
21890;SDS011;11110;52.386;16.940;2023-06-26T08:20:54;7.57;;;5.28;;
21890;SDS011;11110;52.386;16.940;2023-06-26T08:23:24;7.95;;;5.43;;
21890;SDS011;11110;52.386;16.940;2023-06-26T08:25:53;7.18;;;4.95;;
21890;SDS011;11110;52.386;16.940;2023-06-26T08:28:25;7.70;;;5.55;;
21890;SDS011;11110;52.386;16.940;2023-06-26T08:30:53;5.88;;;4.65;;
21890;SDS011;11110;52.386;16.940;2023-06-26T08:33:22;7.70;;;4.90;;
21890;SDS011;11110;52.386;16.940;2023-06-26T08:35:50;7.45;;;4.82;;
21890;SDS011;11110;52.386;16.940;2023-06-26T08:38:19;7.18;;;4.78;;
21890;SDS011;11110;52.386;16.940;2023-06-26T08:40:49;6.95;;;4.85;;
21890;SDS011;11110;52.386;16.940;2023-06-26T08:43:18;5.40;;;4.38;;
21890;SDS011;11110;52.386;16.940;2023-06-26T08:45:48;7.35;;;5.00;;
21890;SDS011;11110;52.386;16.940;2023-06-26T08:48:18;6.63;;;5.00;;
21890;SDS011;11110;52.386;16.940;2023-06-26T08:50:49;5.57;;;4.53;;
21890;SDS011;11110;52.386;16.940;2023-06-26T08:53:21;5.45;;;4.20;;
21890;SDS011;11110;52.386;16.940;2023-06-26T08:55:57;5.35;;;4.78;;
21890;SDS011;11110;52.386;16.940;2023-06-26T08:58:27;6.80;;;4.97;;
21890;SDS011;11110;52.386;16.940;2023-06-26T09:00:56;7.15;;;5.07;;
21890;SDS011;11110;52.386;16.940;2023-06-26T09:03:25;6.60;;;4.88;;
21890;SDS011;11110;52.386;16.940;2023-06-26T09:05:54;5.72;;;4.18;;
21890;SDS011;11110;52.386;16.940;2023-06-26T09:08:22;6.43;;;4.68;;
21890;SDS011;11110;52.386;16.940;2023-06-26T09:10:51;5.25;;;4.65;;
21890;SDS011;11110;52.386;16.940;2023-06-26T09:13:21;13.18;;;4.95;;
21890;SDS011;11110;52.386;16.940;2023-06-26T09:15:56;5.05;;;4.55;;
21890;SDS011;11110;52.386;16.940;2023-06-26T09:18:25;5.82;;;4.82;;
21890;SDS011;11110;52.386;16.940;2023-06-26T09:20:54;9.35;;;4.85;;
21890;SDS011;11110;52.386;16.940;2023-06-26T09:23:23;5.25;;;4.20;;
21890;SDS011;11110;52.386;16.940;2023-06-26T09:25:51;6.30;;;4.30;;
21890;SDS011;11110;52.386;16.940;2023-06-26T09:28:20;6.15;;;4.90;;
21890;SDS011;11110;52.386;16.940;2023-06-26T09:30:50;7.20;;;4.50;;
21890;SDS011;11110;52.386;16.940;2023-06-26T09:33:19;5.20;;;4.38;;
21890;SDS011;11110;52.386;16.940;2023-06-26T09:35:48;5.00;;;3.97;;
21890;SDS011;11110;52.386;16.940;2023-06-26T09:38:17;7.05;;;4.70;;
21890;SDS011;11110;52.386;16.940;2023-06-26T09:40:45;6.32;;;4.55;;
21890;SDS011;11110;52.386;16.940;2023-06-26T09:43:14;5.60;;;4.45;;
21890;SDS011;11110;52.386;16.940;2023-06-26T09:45:44;7.35;;;3.80;;
21890;SDS011;11110;52.386;16.940;2023-06-26T09:48:13;7.00;;;4.55;;
21890;SDS011;11110;52.386;16.940;2023-06-26T09:50:44;5.53;;;4.47;;
21890;SDS011;11110;52.386;16.940;2023-06-26T09:53:34;5.00;;;3.72;;
21890;SDS011;11110;52.386;16.940;2023-06-26T09:56:07;4.53;;;3.97;;
21890;SDS011;11110;52.386;16.940;2023-06-26T09:58:42;4.22;;;3.67;;
21890;SDS011;11110;52.386;16.940;2023-06-26T10:01:13;5.38;;;4.03;;
21890;SDS011;11110;52.386;16.940;2023-06-26T10:03:42;5.70;;;4.18;;
21890;SDS011;11110;52.386;16.940;2023-06-26T10:06:11;6.03;;;4.10;;
21890;SDS011;11110;52.386;16.940;2023-06-26T10:08:41;5.03;;;4.28;;
21890;SDS011;11110;52.386;16.940;2023-06-26T10:11:11;5.00;;;3.75;;
21890;SDS011;11110;52.386;16.940;2023-06-26T10:13:44;5.75;;;4.20;;
21890;SDS011;11110;52.386;16.940;2023-06-26T10:16:18;4.85;;;4.00;;
21890;SDS011;11110;52.386;16.940;2023-06-26T10:18:52;8.43;;;4.32;;
21890;SDS011;11110;52.386;16.940;2023-06-26T10:21:24;4.40;;;4.00;;
21890;SDS011;11110;52.386;16.940;2023-06-26T10:23:56;6.13;;;4.18;;
21890;SDS011;11110;52.386;16.940;2023-06-26T10:26:25;6.00;;;4.32;;
21890;SDS011;11110;52.386;16.940;2023-06-26T10:28:56;5.78;;;4.20;;
21890;SDS011;11110;52.386;16.940;2023-06-26T10:31:27;8.38;;;4.18;;
21890;SDS011;11110;52.386;16.940;2023-06-26T10:33:57;7.32;;;4.57;;
21890;SDS011;11110;52.386;16.940;2023-06-26T10:36:27;4.60;;;3.80;;
21890;SDS011;11110;52.386;16.940;2023-06-26T10:38:58;5.85;;;4.35;;
21890;SDS011;11110;52.386;16.940;2023-06-26T10:41:36;6.93;;;4.30;;
21890;SDS011;11110;52.386;16.940;2023-06-26T10:44:16;4.30;;;3.90;;
21890;SDS011;11110;52.386;16.940;2023-06-26T10:46:49;5.47;;;4.28;;
21890;SDS011;11110;52.386;16.940;2023-06-26T10:49:19;5.43;;;4.20;;
21890;SDS011;11110;52.386;16.940;2023-06-26T10:51:56;6.03;;;5.32;;
21890;SDS011;11110;52.386;16.940;2023-06-26T10:54:30;6.50;;;4.70;;
21890;SDS011;11110;52.386;16.940;2023-06-26T10:57:01;8.68;;;5.18;;
21890;SDS011;11110;52.386;16.940;2023-06-26T10:59:30;5.60;;;5.05;;
21890;SDS011;11110;52.386;16.940;2023-06-26T11:02:01;6.97;;;4.35;;
21890;SDS011;11110;52.386;16.940;2023-06-26T11:04:38;6.13;;;4.22;;
21890;SDS011;11110;52.386;16.940;2023-06-26T11:07:14;5.32;;;4.22;;
21890;SDS011;11110;52.386;16.940;2023-06-26T11:09:54;5.97;;;4.93;;
21890;SDS011;11110;52.386;16.940;2023-06-26T11:12:34;6.60;;;4.68;;
21890;SDS011;11110;52.386;16.940;2023-06-26T11:15:04;4.57;;;4.18;;
21890;SDS011;11110;52.386;16.940;2023-06-26T11:17:37;7.05;;;4.68;;
21890;SDS011;11110;52.386;16.940;2023-06-26T11:20:07;5.38;;;3.78;;
21890;SDS011;11110;52.386;16.940;2023-06-26T11:22:38;4.50;;;4.10;;
21890;SDS011;11110;52.386;16.940;2023-06-26T11:25:08;4.63;;;4.13;;
21890;SDS011;11110;52.386;16.940;2023-06-26T11:27:38;4.65;;;4.25;;
21890;SDS011;11110;52.386;16.940;2023-06-26T11:30:07;5.38;;;4.20;;
21890;SDS011;11110;52.386;16.940;2023-06-26T11:32:39;5.35;;;4.65;;
21890;SDS011;11110;52.386;16.940;2023-06-26T11:35:08;5.07;;;4.00;;
21890;SDS011;11110;52.386;16.940;2023-06-26T11:37:37;5.45;;;3.58;;
21890;SDS011;11110;52.386;16.940;2023-06-26T11:40:17;5.93;;;4.30;;
21890;SDS011;11110;52.386;16.940;2023-06-26T11:42:47;4.47;;;4.05;;
21890;SDS011;11110;52.386;16.940;2023-06-26T11:45:15;4.68;;;4.18;;
21890;SDS011;11110;52.386;16.940;2023-06-26T11:47:46;4.70;;;4.03;;
21890;SDS011;11110;52.386;16.940;2023-06-26T11:50:14;5.47;;;4.03;;
21890;SDS011;11110;52.386;16.940;2023-06-26T11:52:44;3.92;;;3.60;;
21890;SDS011;11110;52.386;16.940;2023-06-26T11:55:13;5.25;;;4.75;;
21890;SDS011;11110;52.386;16.940;2023-06-26T11:57:41;8.68;;;6.70;;
21890;SDS011;11110;52.386;16.940;2023-06-26T12:00:10;4.50;;;4.05;;
21890;SDS011;11110;52.386;16.940;2023-06-26T12:02:40;6.20;;;5.03;;
21890;SDS011;11110;52.386;16.940;2023-06-26T12:05:10;7.47;;;5.63;;
21890;SDS011;11110;52.386;16.940;2023-06-26T12:07:39;6.45;;;5.53;;
21890;SDS011;11110;52.386;16.940;2023-06-26T12:10:09;7.13;;;6.43;;
21890;SDS011;11110;52.386;16.940;2023-06-26T12:12:39;6.78;;;4.20;;
21890;SDS011;11110;52.386;16.940;2023-06-26T12:15:08;5.07;;;4.03;;
21890;SDS011;11110;52.386;16.940;2023-06-26T12:17:42;6.97;;;5.60;;
21890;SDS011;11110;52.386;16.940;2023-06-26T12:20:21;5.50;;;4.82;;
21890;SDS011;11110;52.386;16.940;2023-06-26T12:22:52;6.40;;;4.60;;
21890;SDS011;11110;52.386;16.940;2023-06-26T12:25:21;7.45;;;5.50;;
21890;SDS011;11110;52.386;16.940;2023-06-26T12:27:51;6.13;;;5.35;;
21890;SDS011;11110;52.386;16.940;2023-06-26T12:30:20;7.65;;;4.82;;
21890;SDS011;11110;52.386;16.940;2023-06-26T12:32:49;6.00;;;4.82;;
21890;SDS011;11110;52.386;16.940;2023-06-26T12:35:17;8.18;;;6.10;;
21890;SDS011;11110;52.386;16.940;2023-06-26T12:37:47;6.80;;;5.20;;
21890;SDS011;11110;52.386;16.940;2023-06-26T12:40:16;6.30;;;4.95;;
21890;SDS011;11110;52.386;16.940;2023-06-26T12:42:45;6.90;;;5.18;;
21890;SDS011;11110;52.386;16.940;2023-06-26T12:45:14;7.38;;;4.88;;
21890;SDS011;11110;52.386;16.940;2023-06-26T12:47:47;5.18;;;4.60;;
21890;SDS011;11110;52.386;16.940;2023-06-26T12:50:15;6.72;;;4.68;;
21890;SDS011;11110;52.386;16.940;2023-06-26T12:52:44;7.28;;;4.53;;
21890;SDS011;11110;52.386;16.940;2023-06-26T12:55:14;4.75;;;4.32;;
21890;SDS011;11110;52.386;16.940;2023-06-26T12:57:44;8.02;;;5.78;;
21890;SDS011;11110;52.386;16.940;2023-06-26T13:00:13;4.63;;;4.10;;
21890;SDS011;11110;52.386;16.940;2023-06-26T13:02:42;4.55;;;3.95;;
21890;SDS011;11110;52.386;16.940;2023-06-26T13:05:12;5.53;;;4.93;;
21890;SDS011;11110;52.386;16.940;2023-06-26T13:07:41;4.47;;;3.97;;
21890;SDS011;11110;52.386;16.940;2023-06-26T13:10:11;4.82;;;4.32;;
21890;SDS011;11110;52.386;16.940;2023-06-26T13:12:39;4.88;;;4.38;;
21890;SDS011;11110;52.386;16.940;2023-06-26T13:15:08;7.63;;;4.47;;
21890;SDS011;11110;52.386;16.940;2023-06-26T13:17:38;5.10;;;4.22;;
21890;SDS011;11110;52.386;16.940;2023-06-26T13:20:07;6.03;;;4.40;;
21890;SDS011;11110;52.386;16.940;2023-06-26T13:22:36;5.45;;;4.80;;
21890;SDS011;11110;52.386;16.940;2023-06-26T13:25:05;4.32;;;3.90;;
21890;SDS011;11110;52.386;16.940;2023-06-26T13:27:36;4.70;;;4.25;;
21890;SDS011;11110;52.386;16.940;2023-06-26T13:30:05;4.45;;;4.03;;
21890;SDS011;11110;52.386;16.940;2023-06-26T13:32:35;4.78;;;4.28;;
21890;SDS011;11110;52.386;16.940;2023-06-26T13:35:04;5.68;;;4.53;;
21890;SDS011;11110;52.386;16.940;2023-06-26T13:37:33;4.63;;;3.97;;
21890;SDS011;11110;52.386;16.940;2023-06-26T13:40:01;5.68;;;4.45;;
21890;SDS011;11110;52.386;16.940;2023-06-26T13:42:38;5.45;;;4.18;;
21890;SDS011;11110;52.386;16.940;2023-06-26T13:45:08;5.90;;;4.03;;
21890;SDS011;11110;52.386;16.940;2023-06-26T13:47:53;4.68;;;3.95;;
21890;SDS011;11110;52.386;16.940;2023-06-26T13:50:21;5.10;;;4.03;;
21890;SDS011;11110;52.386;16.940;2023-06-26T13:52:49;4.82;;;4.30;;
21890;SDS011;11110;52.386;16.940;2023-06-26T13:55:18;6.13;;;4.40;;
21890;SDS011;11110;52.386;16.940;2023-06-26T13:57:51;5.55;;;4.13;;
21890;SDS011;11110;52.386;16.940;2023-06-26T14:00:19;7.47;;;4.75;;
21890;SDS011;11110;52.386;16.940;2023-06-26T14:02:49;5.80;;;4.47;;
21890;SDS011;11110;52.386;16.940;2023-06-26T14:05:18;4.85;;;4.35;;
21890;SDS011;11110;52.386;16.940;2023-06-26T14:07:59;5.82;;;4.47;;
21890;SDS011;11110;52.386;16.940;2023-06-26T14:10:29;6.50;;;4.47;;
21890;SDS011;11110;52.386;16.940;2023-06-26T14:13:01;4.32;;;3.92;;
21890;SDS011;11110;52.386;16.940;2023-06-26T14:15:30;6.13;;;4.53;;
21890;SDS011;11110;52.386;16.940;2023-06-26T14:17:59;5.55;;;4.22;;
21890;SDS011;11110;52.386;16.940;2023-06-26T14:20:30;4.65;;;4.15;;
21890;SDS011;11110;52.386;16.940;2023-06-26T14:22:59;4.10;;;3.70;;
21890;SDS011;11110;52.386;16.940;2023-06-26T14:25:28;5.30;;;4.15;;
21890;SDS011;11110;52.386;16.940;2023-06-26T14:27:57;4.43;;;4.03;;
21890;SDS011;11110;52.386;16.940;2023-06-26T14:30:27;6.50;;;4.00;;
21890;SDS011;11110;52.386;16.940;2023-06-26T14:32:56;5.97;;;4.30;;
21890;SDS011;11110;52.386;16.940;2023-06-26T14:35:24;5.00;;;3.90;;
21890;SDS011;11110;52.386;16.940;2023-06-26T14:37:53;5.25;;;4.05;;
21890;SDS011;11110;52.386;16.940;2023-06-26T14:40:21;5.63;;;4.57;;
21890;SDS011;11110;52.386;16.940;2023-06-26T14:42:51;4.93;;;4.25;;
21890;SDS011;11110;52.386;16.940;2023-06-26T14:45:20;4.60;;;4.20;;